UP1225 UHPP-ULLI
Flight info
| Callsign | UP1225 |
|---|---|
| Flight time | N/A |
| Altitude | 36000 |
| Route | BAKEN A812 LUNIL/K0874F380 A812 OLEGA T411 LABAR/K0902F400 M131 NRM L168 RIGNI M58 ARGIP T821 ROGID M856 GIKUR T458 BEPOL |
| Aircraft | B772/H-SDE2E3FGHIJ5LORVWXY/LB1D1 |
Departure
| Time | 2026-05-06 11:01 |
|---|---|
| Airport | Yelizovo Airport (UHPP) |
Arrival
| Time | N/A |
|---|---|
| Airport | Pulkovo Airport (ULLI) |
| Time | Latitude | Longitude | Altitude | Speed | Heading |
|---|---|---|---|---|---|
| 2026-05-06 09:30 | 53.16830 | 158.42782 | 109 ft | 0 kts | 269° |
| 2026-05-06 10:44 | 53.16830 | 158.42781 | 128 ft | 0 kts | 270° |
| 2026-05-06 10:47 | 53.16830 | 158.42783 | 128 ft | 2 kts | 270° |
| 2026-05-06 10:47 | 53.16831 | 158.42825 | 134 ft | 4 kts | 267° |
| 2026-05-06 10:47 | 53.16833 | 158.42870 | 139 ft | 4 kts | 265° |
| 2026-05-06 10:47 | 53.16834 | 158.42907 | 139 ft | 2 kts | 269° |
| 2026-05-06 10:48 | 53.16836 | 158.42949 | 139 ft | 4 kts | 253° |
| 2026-05-06 10:48 | 53.16846 | 158.42990 | 139 ft | 4 kts | 242° |
| 2026-05-06 10:48 | 53.16851 | 158.43006 | 139 ft | 0 kts | 242° |
| 2026-05-06 10:52 | 53.16849 | 158.43000 | 139 ft | 6 kts | 242° |
| 2026-05-06 10:52 | 53.16852 | 158.42902 | 134 ft | 10 kts | 312° |
| 2026-05-06 10:52 | 53.16896 | 158.42846 | 142 ft | 5 kts | 324° |
| 2026-05-06 10:52 | 53.16926 | 158.42812 | 142 ft | 5 kts | 336° |
| 2026-05-06 10:53 | 53.16961 | 158.42791 | 145 ft | 5 kts | 342° |
| 2026-05-06 10:53 | 53.16997 | 158.42784 | 145 ft | 5 kts | 16° |
| 2026-05-06 10:53 | 53.17026 | 158.42825 | 145 ft | 5 kts | 49° |
| 2026-05-06 10:53 | 53.17049 | 158.42874 | 145 ft | 5 kts | 53° |
| 2026-05-06 10:54 | 53.17071 | 158.42930 | 145 ft | 6 kts | 57° |
| 2026-05-06 10:54 | 53.17094 | 158.42990 | 145 ft | 6 kts | 58° |
| 2026-05-06 10:54 | 53.17116 | 158.43052 | 145 ft | 6 kts | 59° |
| 2026-05-06 10:54 | 53.17137 | 158.43115 | 145 ft | 6 kts | 61° |
| 2026-05-06 10:55 | 53.17162 | 158.43188 | 145 ft | 9 kts | 59° |
| 2026-05-06 10:55 | 53.17198 | 158.43289 | 145 ft | 12 kts | 59° |
| 2026-05-06 10:55 | 53.17262 | 158.43468 | 145 ft | 22 kts | 59° |
| 2026-05-06 10:55 | 53.17340 | 158.43692 | 142 ft | 22 kts | 60° |
| 2026-05-06 10:56 | 53.17419 | 158.43917 | 149 ft | 22 kts | 59° |
| 2026-05-06 10:56 | 53.17489 | 158.44149 | 150 ft | 22 kts | 66° |
| 2026-05-06 10:56 | 53.17517 | 158.44305 | 151 ft | 11 kts | 97° |
| 2026-05-06 10:56 | 53.17461 | 158.44389 | 151 ft | 11 kts | 158° |
| 2026-05-06 10:57 | 53.17388 | 158.44439 | 151 ft | 11 kts | 158° |
| 2026-05-06 10:57 | 53.17313 | 158.44489 | 151 ft | 11 kts | 158° |
| 2026-05-06 10:57 | 53.17185 | 158.44577 | 151 ft | 31 kts | 157° |
| 2026-05-06 10:57 | 53.16971 | 158.44727 | 151 ft | 33 kts | 157° |
| 2026-05-06 10:58 | 53.16771 | 158.44867 | 151 ft | 30 kts | 157° |
| 2026-05-06 10:58 | 53.16579 | 158.45001 | 151 ft | 30 kts | 157° |
| 2026-05-06 10:58 | 53.16386 | 158.45133 | 151 ft | 25 kts | 158° |
| 2026-05-06 10:58 | 53.16257 | 158.45222 | 151 ft | 3 kts | 158° |
| 2026-05-06 10:59 | 53.16248 | 158.45228 | 151 ft | 1 kts | 158° |
| 2026-05-06 10:59 | 53.16222 | 158.45246 | 151 ft | 13 kts | 157° |
| 2026-05-06 10:59 | 53.16111 | 158.45323 | 151 ft | 12 kts | 157° |
| 2026-05-06 10:59 | 53.16064 | 158.45412 | 152 ft | 12 kts | 80° |
| 2026-05-06 11:00 | 53.16094 | 158.45536 | 152 ft | 12 kts | 67° |
| 2026-05-06 11:00 | 53.16155 | 158.45590 | 152 ft | 12 kts | 342° |
| 2026-05-06 11:00 | 53.16167 | 158.45584 | 152 ft | 0 kts | 341° |
| 2026-05-06 11:01 | 53.16288 | 158.45506 | 152 ft | 49 kts | 338° |
| 2026-05-06 11:01 | 53.16873 | 158.45098 | 153 ft | 132 kts | 337° |
| 2026-05-06 11:01 | 53.17943 | 158.44367 | 279 ft | 190 kts | 338° |
| 2026-05-06 11:01 | 53.19197 | 158.43540 | 1183 ft | 197 kts | 338° |
| 2026-05-06 11:02 | 53.20429 | 158.42778 | 2636 ft | 183 kts | 335° |
| 2026-05-06 11:02 | 53.21620 | 158.42032 | 3429 ft | 186 kts | 334° |
| 2026-05-06 11:02 | 53.22856 | 158.41191 | 3916 ft | 198 kts | 333° |
| 2026-05-06 11:02 | 53.24135 | 158.40260 | 4505 ft | 206 kts | 332° |
| 2026-05-06 11:03 | 53.25479 | 158.39244 | 5082 ft | 214 kts | 332° |
| 2026-05-06 11:03 | 53.26856 | 158.38192 | 5718 ft | 223 kts | 333° |
| 2026-05-06 11:03 | 53.28322 | 158.37121 | 6223 ft | 237 kts | 334° |
| 2026-05-06 11:03 | 53.29885 | 158.36033 | 6719 ft | 250 kts | 335° |
| 2026-05-06 11:04 | 53.31523 | 158.34899 | 7307 ft | 260 kts | 335° |
| 2026-05-06 11:04 | 53.33216 | 158.33726 | 7968 ft | 266 kts | 336° |
| 2026-05-06 11:04 | 53.34945 | 158.32529 | 8665 ft | 271 kts | 336° |
| 2026-05-06 11:04 | 53.36634 | 158.31098 | 9358 ft | 274 kts | 328° |
| 2026-05-06 11:05 | 53.38263 | 158.29360 | 9930 ft | 283 kts | 325° |
| 2026-05-06 11:05 | 53.39977 | 158.27458 | 10089 ft | 306 kts | 325° |
| 2026-05-06 11:05 | 53.41811 | 158.25425 | 10394 ft | 324 kts | 325° |
| 2026-05-06 11:05 | 53.43725 | 158.23327 | 11004 ft | 332 kts | 325° |
| 2026-05-06 11:06 | 53.45681 | 158.21201 | 11739 ft | 338 kts | 325° |
| 2026-05-06 11:06 | 53.47665 | 158.19059 | 12576 ft | 340 kts | 325° |
| 2026-05-06 11:06 | 53.49643 | 158.16931 | 13370 ft | 343 kts | 325° |
| 2026-05-06 11:06 | 53.51670 | 158.14751 | 14034 ft | 348 kts | 325° |
| 2026-05-06 11:07 | 53.53729 | 158.12537 | 14657 ft | 354 kts | 325° |
| 2026-05-06 11:07 | 53.55816 | 158.10292 | 15340 ft | 358 kts | 325° |
| 2026-05-06 11:07 | 53.57921 | 158.08026 | 16015 ft | 361 kts | 325° |
| 2026-05-06 11:07 | 53.60048 | 158.05734 | 16661 ft | 365 kts | 325° |
| 2026-05-06 11:08 | 53.62203 | 158.03409 | 17286 ft | 369 kts | 325° |
| 2026-05-06 11:08 | 53.64349 | 158.01088 | 17893 ft | 373 kts | 325° |
| 2026-05-06 11:08 | 53.66546 | 157.98724 | 18427 ft | 377 kts | 327° |
| 2026-05-06 11:08 | 53.68826 | 157.96474 | 18958 ft | 381 kts | 329° |
| 2026-05-06 11:09 | 53.71157 | 157.94290 | 19476 ft | 385 kts | 329° |
| 2026-05-06 11:09 | 53.73514 | 157.92079 | 19984 ft | 389 kts | 329° |
| 2026-05-06 11:09 | 53.75891 | 157.89812 | 20408 ft | 395 kts | 329° |
| 2026-05-06 11:09 | 53.78292 | 157.87503 | 20891 ft | 399 kts | 329° |
| 2026-05-06 11:10 | 53.80706 | 157.85165 | 21417 ft | 401 kts | 329° |
| 2026-05-06 11:10 | 53.83137 | 157.82796 | 21920 ft | 405 kts | 329° |
| 2026-05-06 11:10 | 53.85590 | 157.80400 | 22390 ft | 409 kts | 329° |
| 2026-05-06 11:10 | 53.88066 | 157.77978 | 22850 ft | 413 kts | 329° |
| 2026-05-06 11:11 | 53.90566 | 157.75528 | 23293 ft | 416 kts | 329° |
| 2026-05-06 11:11 | 53.93080 | 157.73064 | 23721 ft | 418 kts | 329° |
| 2026-05-06 11:11 | 53.95604 | 157.70590 | 24155 ft | 420 kts | 329° |
| 2026-05-06 11:11 | 53.98141 | 157.68096 | 24557 ft | 423 kts | 329° |
| 2026-05-06 11:12 | 54.00671 | 157.65605 | 24940 ft | 426 kts | 329° |
| 2026-05-06 11:12 | 54.03242 | 157.63071 | 25355 ft | 428 kts | 329° |
| 2026-05-06 11:12 | 54.05831 | 157.60517 | 25787 ft | 430 kts | 329° |
| 2026-05-06 11:12 | 54.08432 | 157.57946 | 26192 ft | 433 kts | 328° |
| 2026-05-06 11:13 | 54.11047 | 157.55359 | 26601 ft | 435 kts | 329° |
| 2026-05-06 11:13 | 54.13677 | 157.52761 | 26993 ft | 438 kts | 329° |
| 2026-05-06 11:13 | 54.16326 | 157.50146 | 27392 ft | 441 kts | 329° |
| 2026-05-06 11:13 | 54.18986 | 157.47519 | 27804 ft | 443 kts | 328° |
| 2026-05-06 11:14 | 54.21670 | 157.44862 | 28122 ft | 447 kts | 329° |
| 2026-05-06 11:14 | 54.24372 | 157.42185 | 28494 ft | 450 kts | 328° |
| 2026-05-06 11:14 | 54.27085 | 157.39487 | 28878 ft | 453 kts | 329° |
| 2026-05-06 11:14 | 54.29816 | 157.36768 | 29283 ft | 455 kts | 329° |
| 2026-05-06 11:15 | 54.32554 | 157.34038 | 29622 ft | 457 kts | 328° |
| 2026-05-06 11:15 | 54.35283 | 157.31312 | 29890 ft | 460 kts | 329° |
| 2026-05-06 11:15 | 54.38055 | 157.28543 | 30190 ft | 462 kts | 327° |
| 2026-05-06 11:15 | 54.40841 | 157.25756 | 30481 ft | 464 kts | 328° |
| 2026-05-06 11:16 | 54.43637 | 157.22955 | 30759 ft | 466 kts | 328° |
| 2026-05-06 11:16 | 54.46445 | 157.20139 | 31044 ft | 468 kts | 328° |
| 2026-05-06 11:16 | 54.49267 | 157.17301 | 31295 ft | 471 kts | 328° |
| 2026-05-06 11:16 | 54.52106 | 157.14441 | 31533 ft | 473 kts | 328° |
| 2026-05-06 11:17 | 54.54953 | 157.11567 | 31770 ft | 476 kts | 328° |
| 2026-05-06 11:17 | 54.57812 | 157.08675 | 31996 ft | 478 kts | 328° |
| 2026-05-06 11:17 | 54.60680 | 157.05772 | 32230 ft | 479 kts | 328° |
| 2026-05-06 11:17 | 54.63566 | 157.02845 | 32463 ft | 481 kts | 328° |
| 2026-05-06 11:18 | 54.66456 | 156.99914 | 32694 ft | 482 kts | 328° |
| 2026-05-06 11:18 | 54.69355 | 156.96976 | 32958 ft | 483 kts | 328° |
| 2026-05-06 11:18 | 54.72215 | 156.94074 | 33260 ft | 482 kts | 328° |
| 2026-05-06 11:18 | 54.75108 | 156.91133 | 33562 ft | 482 kts | 328° |
| 2026-05-06 11:19 | 54.77995 | 156.88192 | 33797 ft | 482 kts | 328° |
| 2026-05-06 11:19 | 54.80886 | 156.85242 | 34022 ft | 482 kts | 328° |
| 2026-05-06 11:19 | 54.83774 | 156.82290 | 34251 ft | 482 kts | 328° |
| 2026-05-06 11:19 | 54.86662 | 156.79333 | 34489 ft | 482 kts | 328° |
| 2026-05-06 11:20 | 54.89549 | 156.76357 | 34667 ft | 483 kts | 328° |
| 2026-05-06 11:20 | 54.92441 | 156.73361 | 34861 ft | 484 kts | 328° |
| 2026-05-06 11:20 | 54.95330 | 156.70363 | 35096 ft | 483 kts | 328° |
| 2026-05-06 11:20 | 54.98221 | 156.67363 | 35339 ft | 483 kts | 328° |
| 2026-05-06 11:21 | 55.01110 | 156.64370 | 35548 ft | 483 kts | 328° |
| 2026-05-06 11:21 | 55.03999 | 156.61381 | 35758 ft | 483 kts | 328° |
| 2026-05-06 11:21 | 55.06888 | 156.58388 | 35974 ft | 483 kts | 328° |
| 2026-05-06 11:21 | 55.09781 | 156.55385 | 36166 ft | 483 kts | 328° |
| 2026-05-06 11:22 | 55.11690 | 156.53399 | 36277 ft | 484 kts | 328° |
| 2026-05-06 11:22 | 55.14586 | 156.50381 | 36403 ft | 485 kts | 328° |
| 2026-05-06 11:22 | 55.17484 | 156.47355 | 36602 ft | 485 kts | 328° |
| 2026-05-06 11:22 | 55.20381 | 156.44327 | 36793 ft | 485 kts | 328° |
| 2026-05-06 11:23 | 55.24212 | 156.40313 | 37062 ft | 484 kts | 328° |
| 2026-05-06 11:23 | 55.27101 | 156.37281 | 37216 ft | 485 kts | 328° |
| 2026-05-06 11:23 | 55.29057 | 156.35224 | 37330 ft | 485 kts | 328° |
| 2026-05-06 11:23 | 55.31946 | 156.32181 | 37503 ft | 485 kts | 328° |
| 2026-05-06 11:24 | 55.34842 | 156.29127 | 37652 ft | 485 kts | 328° |
| 2026-05-06 11:24 | 55.37702 | 156.26106 | 37780 ft | 486 kts | 328° |
| 2026-05-06 11:24 | 55.40597 | 156.23040 | 37932 ft | 486 kts | 328° |
| 2026-05-06 11:24 | 55.43483 | 156.19958 | 38138 ft | 484 kts | 328° |
| 2026-05-06 11:25 | 55.46357 | 156.16876 | 38336 ft | 482 kts | 327° |
| 2026-05-06 11:25 | 55.49220 | 156.13805 | 38495 ft | 481 kts | 328° |
| 2026-05-06 11:25 | 55.52082 | 156.10733 | 38615 ft | 481 kts | 328° |
| 2026-05-06 11:25 | 55.54946 | 156.07662 | 38721 ft | 481 kts | 328° |
| 2026-05-06 11:26 | 55.57811 | 156.04591 | 38785 ft | 482 kts | 328° |
| 2026-05-06 11:26 | 55.63547 | 155.98420 | 38577 ft | 480 kts | 328° |
| 2026-05-06 11:26 | 55.66402 | 155.95339 | 38231 ft | 481 kts | 327° |
| 2026-05-06 11:27 | 55.69266 | 155.92242 | 37767 ft | 483 kts | 328° |
| 2026-05-06 11:27 | 55.72147 | 155.89121 | 37496 ft | 487 kts | 328° |
| 2026-05-06 11:27 | 55.75043 | 155.85977 | 37484 ft | 489 kts | 328° |
| 2026-05-06 11:28 | 55.80859 | 155.79650 | 37460 ft | 490 kts | 328° |
| 2026-05-06 11:28 | 55.83714 | 155.76537 | 37300 ft | 486 kts | 328° |
| 2026-05-06 11:28 | 55.86596 | 155.73388 | 36915 ft | 486 kts | 328° |
| 2026-05-06 11:28 | 55.89479 | 155.70232 | 36531 ft | 486 kts | 328° |
| 2026-05-06 11:29 | 55.92368 | 155.67064 | 36084 ft | 488 kts | 328° |
| 2026-05-06 11:29 | 55.95255 | 155.63891 | 35704 ft | 487 kts | 328° |
| 2026-05-06 11:29 | 55.98152 | 155.60702 | 35467 ft | 490 kts | 328° |
| 2026-05-06 11:30 | 56.03960 | 155.54292 | 35472 ft | 493 kts | 328° |
| 2026-05-06 11:30 | 56.09841 | 155.47778 | 35468 ft | 501 kts | 328° |
| 2026-05-06 11:31 | 56.15796 | 155.41160 | 35472 ft | 506 kts | 328° |
| 2026-05-06 11:31 | 56.21803 | 155.34503 | 35465 ft | 509 kts | 328° |
| 2026-05-06 11:32 | 56.27873 | 155.27870 | 35460 ft | 511 kts | 329° |
| 2026-05-06 11:32 | 56.33971 | 155.21192 | 35467 ft | 514 kts | 329° |
| 2026-05-06 11:33 | 56.40095 | 155.14441 | 35472 ft | 517 kts | 329° |
| 2026-05-06 11:33 | 56.46213 | 155.07661 | 35463 ft | 520 kts | 328° |
| 2026-05-06 11:34 | 56.52388 | 155.00789 | 35457 ft | 522 kts | 329° |
| 2026-05-06 11:34 | 56.58573 | 154.93881 | 35457 ft | 522 kts | 329° |
| 2026-05-06 11:35 | 56.64752 | 154.86953 | 35457 ft | 521 kts | 328° |
| 2026-05-06 11:35 | 56.70922 | 154.80011 | 35454 ft | 520 kts | 328° |
| 2026-05-06 11:36 | 56.77061 | 154.73074 | 35449 ft | 518 kts | 328° |
| 2026-05-06 11:36 | 56.83184 | 154.66128 | 35457 ft | 517 kts | 328° |
| 2026-05-06 11:37 | 56.89285 | 154.59181 | 35449 ft | 516 kts | 328° |
| 2026-05-06 11:37 | 56.95339 | 154.52261 | 35454 ft | 516 kts | 328° |
| 2026-05-06 11:38 | 57.01418 | 154.45283 | 35455 ft | 515 kts | 328° |
| 2026-05-06 11:38 | 57.07506 | 154.38269 | 35461 ft | 515 kts | 328° |
| 2026-05-06 11:39 | 57.13586 | 154.31234 | 35455 ft | 517 kts | 328° |
| 2026-05-06 11:39 | 57.19630 | 154.24218 | 35450 ft | 515 kts | 328° |
| 2026-05-06 11:40 | 57.25670 | 154.17103 | 35443 ft | 514 kts | 328° |
| 2026-05-06 11:40 | 57.31678 | 154.09928 | 35455 ft | 513 kts | 327° |
| 2026-05-06 11:41 | 57.37674 | 154.02745 | 35460 ft | 513 kts | 327° |
| 2026-05-06 11:41 | 57.43670 | 153.95548 | 35454 ft | 513 kts | 327° |
| 2026-05-06 11:42 | 57.49629 | 153.88370 | 35457 ft | 514 kts | 328° |
| 2026-05-06 11:42 | 57.55633 | 153.81109 | 35460 ft | 515 kts | 327° |
| 2026-05-06 11:43 | 57.61643 | 153.73810 | 35463 ft | 516 kts | 327° |
| 2026-05-06 11:43 | 57.67661 | 153.66472 | 35463 ft | 517 kts | 327° |
| 2026-05-06 11:44 | 57.76700 | 153.55396 | 35463 ft | 518 kts | 327° |
| 2026-05-06 11:44 | 57.82737 | 153.47969 | 35467 ft | 519 kts | 327° |
| 2026-05-06 11:45 | 57.88743 | 153.40580 | 35468 ft | 519 kts | 328° |
| 2026-05-06 11:45 | 57.94796 | 153.33103 | 35472 ft | 520 kts | 327° |
| 2026-05-06 11:46 | 58.00850 | 153.25592 | 35470 ft | 521 kts | 327° |
| 2026-05-06 11:46 | 58.06907 | 153.18043 | 35480 ft | 522 kts | 328° |
| 2026-05-06 11:47 | 58.12973 | 153.10449 | 35490 ft | 523 kts | 327° |
| 2026-05-06 11:47 | 58.19036 | 153.02824 | 35474 ft | 524 kts | 327° |
| 2026-05-06 11:48 | 58.24975 | 152.94896 | 35494 ft | 524 kts | 325° |
| 2026-05-06 11:48 | 58.30943 | 152.86843 | 35495 ft | 525 kts | 326° |
| 2026-05-06 11:49 | 58.36929 | 152.78848 | 35493 ft | 525 kts | 326° |
| 2026-05-06 11:49 | 58.42916 | 152.70821 | 35498 ft | 526 kts | 326° |
| 2026-05-06 11:50 | 58.48890 | 152.62757 | 35504 ft | 525 kts | 326° |
| 2026-05-06 11:50 | 58.54806 | 152.54732 | 35505 ft | 524 kts | 326° |
| 2026-05-06 11:51 | 58.60784 | 152.46732 | 35514 ft | 523 kts | 327° |
| 2026-05-06 11:51 | 58.66866 | 152.39033 | 35504 ft | 522 kts | 328° |
| 2026-05-06 11:52 | 58.72917 | 152.31290 | 35521 ft | 521 kts | 327° |
| 2026-05-06 11:52 | 58.78895 | 152.23525 | 35519 ft | 521 kts | 327° |
| 2026-05-06 11:53 | 58.84900 | 152.15684 | 35532 ft | 521 kts | 327° |
| 2026-05-06 11:53 | 58.90898 | 152.07823 | 35542 ft | 521 kts | 327° |
| 2026-05-06 11:54 | 58.96901 | 151.99925 | 35545 ft | 522 kts | 327° |
| 2026-05-06 11:54 | 59.02902 | 151.91996 | 35549 ft | 522 kts | 327° |
| 2026-05-06 11:55 | 59.08912 | 151.84023 | 35556 ft | 522 kts | 327° |
| 2026-05-06 11:55 | 59.14925 | 151.76060 | 35556 ft | 523 kts | 327° |
| 2026-05-06 11:56 | 59.20905 | 151.68141 | 35558 ft | 523 kts | 327° |
| 2026-05-06 11:56 | 59.26923 | 151.60128 | 35559 ft | 523 kts | 327° |
| 2026-05-06 11:57 | 59.32939 | 151.52081 | 35565 ft | 523 kts | 327° |
| 2026-05-06 11:57 | 59.38962 | 151.44052 | 35558 ft | 523 kts | 327° |
| 2026-05-06 11:58 | 59.44987 | 151.36005 | 35565 ft | 523 kts | 327° |
| 2026-05-06 11:58 | 59.50960 | 151.27981 | 35573 ft | 524 kts | 327° |
| 2026-05-06 11:59 | 59.56984 | 151.19846 | 35568 ft | 524 kts | 327° |
| 2026-05-06 11:59 | 59.63004 | 151.11683 | 35561 ft | 524 kts | 326° |
| 2026-05-06 12:00 | 59.68970 | 151.03348 | 35568 ft | 525 kts | 325° |
| 2026-05-06 12:00 | 59.74868 | 150.94970 | 35574 ft | 525 kts | 325° |
| 2026-05-06 12:01 | 59.80817 | 150.86520 | 35557 ft | 526 kts | 325° |
| 2026-05-06 12:01 | 59.86772 | 150.78046 | 35548 ft | 526 kts | 325° |
| 2026-05-06 12:02 | 59.92729 | 150.69565 | 35559 ft | 526 kts | 326° |
| 2026-05-06 12:02 | 59.98787 | 150.61344 | 35550 ft | 526 kts | 327° |
| 2026-05-06 12:03 | 60.04864 | 150.53155 | 35556 ft | 526 kts | 327° |
| 2026-05-06 12:03 | 60.10909 | 150.44883 | 35573 ft | 526 kts | 327° |
| 2026-05-06 12:04 | 60.16917 | 150.36619 | 35586 ft | 527 kts | 327° |
| 2026-05-06 12:04 | 60.22969 | 150.28285 | 35586 ft | 527 kts | 327° |
| 2026-05-06 12:05 | 60.29014 | 150.19924 | 35602 ft | 527 kts | 326° |
| 2026-05-06 12:05 | 60.35061 | 150.11522 | 35596 ft | 527 kts | 326° |
| 2026-05-06 12:06 | 60.41107 | 150.03094 | 35605 ft | 527 kts | 326° |
| 2026-05-06 12:06 | 60.47138 | 149.94641 | 35614 ft | 527 kts | 326° |
| 2026-05-06 12:07 | 60.53130 | 149.86192 | 35618 ft | 527 kts | 326° |
| 2026-05-06 12:07 | 60.59158 | 149.77647 | 35614 ft | 527 kts | 326° |
| 2026-05-06 12:08 | 60.65175 | 149.69084 | 35620 ft | 527 kts | 326° |
| 2026-05-06 12:08 | 60.71196 | 149.60473 | 35625 ft | 528 kts | 326° |
| 2026-05-06 12:09 | 60.77208 | 149.51838 | 35633 ft | 528 kts | 326° |
| 2026-05-06 12:09 | 60.83216 | 149.43167 | 35637 ft | 528 kts | 326° |
| 2026-05-06 12:10 | 60.89177 | 149.34522 | 35633 ft | 528 kts | 325° |
| 2026-05-06 12:10 | 60.95177 | 149.25782 | 35639 ft | 529 kts | 325° |
| 2026-05-06 12:11 | 61.01177 | 149.16997 | 35654 ft | 529 kts | 325° |
| 2026-05-06 12:11 | 61.06175 | 149.09649 | 35658 ft | 529 kts | 325° |
| 2026-05-06 12:12 | 61.12165 | 149.00806 | 35653 ft | 529 kts | 325° |
| 2026-05-06 12:12 | 61.18158 | 148.91919 | 35667 ft | 529 kts | 325° |
| 2026-05-06 12:13 | 61.24141 | 148.83016 | 35669 ft | 529 kts | 325° |
| 2026-05-06 12:13 | 61.30087 | 148.74128 | 35672 ft | 529 kts | 324° |
| 2026-05-06 12:14 | 61.36061 | 148.65152 | 35672 ft | 529 kts | 324° |
| 2026-05-06 12:14 | 61.42027 | 148.56143 | 35679 ft | 529 kts | 324° |
| 2026-05-06 12:15 | 61.47984 | 148.47107 | 35681 ft | 529 kts | 324° |
| 2026-05-06 12:15 | 61.53934 | 148.38032 | 35678 ft | 528 kts | 324° |
| 2026-05-06 12:16 | 61.59866 | 148.28900 | 35681 ft | 528 kts | 324° |
| 2026-05-06 12:16 | 61.65791 | 148.19728 | 35690 ft | 528 kts | 324° |
| 2026-05-06 12:17 | 61.71664 | 148.10595 | 35690 ft | 528 kts | 324° |
| 2026-05-06 12:17 | 61.77571 | 148.01370 | 35693 ft | 528 kts | 324° |
| 2026-05-06 12:18 | 61.83473 | 147.92107 | 35691 ft | 528 kts | 323° |
| 2026-05-06 12:18 | 61.89365 | 147.82813 | 35701 ft | 527 kts | 323° |
| 2026-05-06 12:19 | 61.95247 | 147.73488 | 35707 ft | 527 kts | 323° |
| 2026-05-06 12:19 | 62.01118 | 147.64135 | 35710 ft | 527 kts | 323° |
| 2026-05-06 12:20 | 62.06985 | 147.54744 | 35720 ft | 527 kts | 323° |
| 2026-05-06 12:20 | 62.12844 | 147.45320 | 35715 ft | 526 kts | 323° |
| 2026-05-06 12:21 | 62.18645 | 147.35942 | 35729 ft | 526 kts | 323° |
| 2026-05-06 12:21 | 62.24475 | 147.26468 | 35730 ft | 526 kts | 323° |
| 2026-05-06 12:22 | 62.30303 | 147.16950 | 35733 ft | 526 kts | 323° |
| 2026-05-06 12:22 | 62.36125 | 147.07397 | 35739 ft | 526 kts | 322° |
| 2026-05-06 12:23 | 62.41939 | 146.97809 | 35738 ft | 526 kts | 322° |
| 2026-05-06 12:23 | 62.47741 | 146.88190 | 35749 ft | 525 kts | 322° |
| 2026-05-06 12:24 | 62.53534 | 146.78539 | 35746 ft | 525 kts | 322° |
| 2026-05-06 12:24 | 62.59315 | 146.68858 | 35748 ft | 525 kts | 322° |
| 2026-05-06 12:25 | 62.65058 | 146.59198 | 35750 ft | 525 kts | 322° |
| 2026-05-06 12:25 | 62.70832 | 146.49456 | 35751 ft | 525 kts | 322° |
| 2026-05-06 12:26 | 62.76614 | 146.39681 | 35755 ft | 525 kts | 322° |
| 2026-05-06 12:26 | 62.82385 | 146.29872 | 35758 ft | 525 kts | 322° |
| 2026-05-06 12:27 | 62.88145 | 146.20028 | 35759 ft | 525 kts | 321° |
| 2026-05-06 12:27 | 62.93907 | 146.10127 | 35756 ft | 525 kts | 321° |
| 2026-05-06 12:28 | 62.99656 | 146.00199 | 35758 ft | 525 kts | 321° |
| 2026-05-06 12:28 | 63.05359 | 145.90303 | 35755 ft | 525 kts | 321° |
| 2026-05-06 12:29 | 63.11090 | 145.80313 | 35758 ft | 525 kts | 321° |
| 2026-05-06 12:29 | 63.16820 | 145.70273 | 35760 ft | 525 kts | 321° |
| 2026-05-06 12:30 | 63.22504 | 145.60260 | 35759 ft | 524 kts | 321° |
| 2026-05-06 12:30 | 63.28203 | 145.50169 | 35759 ft | 524 kts | 321° |
| 2026-05-06 12:31 | 63.33907 | 145.40019 | 35748 ft | 524 kts | 321° |
| 2026-05-06 12:31 | 63.39582 | 145.29812 | 35756 ft | 523 kts | 321° |
| 2026-05-06 12:32 | 63.45228 | 145.19585 | 35762 ft | 522 kts | 320° |
| 2026-05-06 12:32 | 63.50833 | 145.09387 | 35759 ft | 522 kts | 320° |
| 2026-05-06 12:33 | 63.56465 | 144.99091 | 35764 ft | 521 kts | 320° |
| 2026-05-06 12:33 | 63.62076 | 144.88783 | 35770 ft | 520 kts | 320° |
| 2026-05-06 12:34 | 63.67679 | 144.78431 | 35763 ft | 520 kts | 320° |
| 2026-05-06 12:34 | 63.73258 | 144.68069 | 35768 ft | 519 kts | 320° |
| 2026-05-06 12:35 | 63.78788 | 144.57744 | 35765 ft | 519 kts | 320° |
| 2026-05-06 12:35 | 63.84358 | 144.47291 | 35759 ft | 519 kts | 320° |
| 2026-05-06 12:36 | 63.89902 | 144.36830 | 35758 ft | 518 kts | 320° |
| 2026-05-06 12:36 | 63.95438 | 144.26326 | 35752 ft | 518 kts | 320° |
| 2026-05-06 12:37 | 64.00957 | 144.15800 | 35768 ft | 517 kts | 319° |
| 2026-05-06 12:37 | 64.06468 | 144.05241 | 35762 ft | 518 kts | 319° |
| 2026-05-06 12:38 | 64.11949 | 143.94728 | 35763 ft | 517 kts | 319° |
| 2026-05-06 12:38 | 64.17476 | 143.84118 | 35759 ft | 518 kts | 319° |
| 2026-05-06 12:39 | 64.22989 | 143.73470 | 35764 ft | 518 kts | 319° |
| 2026-05-06 12:39 | 64.28488 | 143.62779 | 35759 ft | 518 kts | 319° |
| 2026-05-06 12:40 | 64.33975 | 143.52030 | 35773 ft | 517 kts | 319° |
| 2026-05-06 12:40 | 64.39451 | 143.41243 | 35766 ft | 517 kts | 319° |
| 2026-05-06 12:41 | 64.44922 | 143.30410 | 35775 ft | 517 kts | 319° |
| 2026-05-06 12:41 | 64.50384 | 143.19542 | 35770 ft | 517 kts | 319° |
| 2026-05-06 12:42 | 64.55808 | 143.08577 | 35784 ft | 516 kts | 316° |
| 2026-05-06 12:42 | 64.60957 | 142.97079 | 35779 ft | 516 kts | 314° |
| 2026-05-06 12:43 | 64.66057 | 142.85288 | 35793 ft | 515 kts | 314° |
| 2026-05-06 12:43 | 64.71162 | 142.73518 | 35801 ft | 515 kts | 314° |
| 2026-05-06 12:44 | 64.76277 | 142.61750 | 35802 ft | 515 kts | 314° |
| 2026-05-06 12:44 | 64.81387 | 142.49945 | 35815 ft | 515 kts | 314° |
| 2026-05-06 12:45 | 64.86454 | 142.38161 | 35815 ft | 515 kts | 314° |
| 2026-05-06 12:46 | 64.94074 | 142.20308 | 35813 ft | 515 kts | 314° |
| 2026-05-06 12:46 | 64.99144 | 142.08354 | 35821 ft | 514 kts | 314° |
| 2026-05-06 12:47 | 65.04202 | 141.96379 | 35844 ft | 514 kts | 313° |
| 2026-05-06 12:47 | 65.09256 | 141.84371 | 35841 ft | 514 kts | 313° |
| 2026-05-06 12:48 | 65.14298 | 141.72322 | 35840 ft | 514 kts | 313° |
| 2026-05-06 12:48 | 65.19307 | 141.60276 | 35845 ft | 514 kts | 313° |
| 2026-05-06 12:49 | 65.24322 | 141.48143 | 35849 ft | 514 kts | 313° |
| 2026-05-06 12:49 | 65.29334 | 141.35963 | 35867 ft | 514 kts | 312° |
| 2026-05-06 12:50 | 65.34340 | 141.23744 | 35863 ft | 514 kts | 312° |
| 2026-05-06 12:50 | 65.39314 | 141.11556 | 35858 ft | 515 kts | 312° |
| 2026-05-06 12:51 | 65.44315 | 140.99230 | 35872 ft | 515 kts | 312° |
| 2026-05-06 12:51 | 65.49309 | 140.86849 | 35877 ft | 515 kts | 312° |
| 2026-05-06 12:52 | 65.54282 | 140.74438 | 35872 ft | 515 kts | 311° |
| 2026-05-06 12:52 | 65.59252 | 140.61963 | 35863 ft | 515 kts | 311° |
| 2026-05-06 12:53 | 65.64217 | 140.49437 | 35838 ft | 515 kts | 311° |
| 2026-05-06 12:53 | 65.69126 | 140.36972 | 35845 ft | 514 kts | 311° |
| 2026-05-06 12:54 | 65.74058 | 140.24375 | 35862 ft | 514 kts | 311° |
| 2026-05-06 12:54 | 65.78985 | 140.11715 | 35853 ft | 514 kts | 311° |
| 2026-05-06 12:55 | 65.83896 | 139.99023 | 35852 ft | 514 kts | 311° |
| 2026-05-06 12:55 | 65.88793 | 139.86288 | 35853 ft | 514 kts | 311° |
| 2026-05-06 12:56 | 65.93678 | 139.73512 | 35869 ft | 513 kts | 310° |
| 2026-05-06 12:56 | 65.98546 | 139.60699 | 35880 ft | 513 kts | 310° |
| 2026-05-06 12:57 | 66.03405 | 139.47838 | 35884 ft | 513 kts | 310° |
| 2026-05-06 12:57 | 66.08214 | 139.35029 | 35887 ft | 512 kts | 310° |
| 2026-05-06 12:58 | 66.13035 | 139.22115 | 35903 ft | 511 kts | 310° |
| 2026-05-06 12:58 | 66.17845 | 139.09122 | 36154 ft | 509 kts | 310° |
| 2026-05-06 12:58 | 66.20206 | 139.02655 | 36604 ft | 503 kts | 310° |
| 2026-05-06 12:59 | 66.22528 | 138.96259 | 37055 ft | 497 kts | 310° |
| 2026-05-06 12:59 | 66.24831 | 138.89891 | 37369 ft | 494 kts | 310° |
| 2026-05-06 12:59 | 66.26352 | 138.85674 | 37516 ft | 494 kts | 310° |
| 2026-05-06 12:59 | 66.28643 | 138.79310 | 37679 ft | 494 kts | 310° |
| 2026-05-06 13:00 | 66.30934 | 138.72931 | 37799 ft | 495 kts | 310° |
| 2026-05-06 13:00 | 66.35532 | 138.60088 | 37901 ft | 497 kts | 310° |
| 2026-05-06 13:01 | 66.40127 | 138.47181 | 37914 ft | 496 kts | 310° |
| 2026-05-06 13:01 | 66.44698 | 138.34263 | 37919 ft | 495 kts | 310° |
| 2026-05-06 13:02 | 66.49259 | 138.21294 | 37920 ft | 498 kts | 309° |
| 2026-05-06 13:02 | 66.53818 | 138.08250 | 37918 ft | 503 kts | 309° |
| 2026-05-06 13:03 | 66.58436 | 137.94960 | 37904 ft | 507 kts | 309° |
| 2026-05-06 13:03 | 66.63074 | 137.81527 | 37904 ft | 510 kts | 309° |
| 2026-05-06 13:04 | 66.67725 | 137.67974 | 37897 ft | 512 kts | 309° |
| 2026-05-06 13:04 | 66.72375 | 137.54347 | 37883 ft | 512 kts | 309° |
| 2026-05-06 13:05 | 66.77020 | 137.40671 | 37881 ft | 512 kts | 309° |
| 2026-05-06 13:05 | 66.81654 | 137.26983 | 37875 ft | 510 kts | 309° |
| 2026-05-06 13:06 | 66.86233 | 137.13373 | 37887 ft | 508 kts | 309° |
| 2026-05-06 13:06 | 66.90801 | 136.99702 | 37857 ft | 505 kts | 309° |
| 2026-05-06 13:07 | 66.95330 | 136.86056 | 37864 ft | 503 kts | 309° |
| 2026-05-06 13:07 | 66.99830 | 136.72412 | 37877 ft | 501 kts | 308° |
| 2026-05-06 13:08 | 67.04311 | 136.58744 | 37881 ft | 500 kts | 308° |
| 2026-05-06 13:08 | 67.08743 | 136.45135 | 37888 ft | 500 kts | 308° |
| 2026-05-06 13:09 | 67.13198 | 136.31371 | 37860 ft | 501 kts | 308° |
| 2026-05-06 13:09 | 67.17638 | 136.17576 | 37860 ft | 500 kts | 308° |
| 2026-05-06 13:10 | 67.22086 | 136.03760 | 37857 ft | 500 kts | 308° |
| 2026-05-06 13:10 | 67.26565 | 135.89977 | 37850 ft | 501 kts | 308° |
| 2026-05-06 13:11 | 67.31035 | 135.76144 | 37868 ft | 501 kts | 308° |
| 2026-05-06 13:11 | 67.35465 | 135.62315 | 37853 ft | 501 kts | 308° |
| 2026-05-06 13:12 | 67.39905 | 135.48349 | 37857 ft | 501 kts | 308° |
| 2026-05-06 13:12 | 67.44335 | 135.34325 | 37850 ft | 501 kts | 308° |
| 2026-05-06 13:13 | 67.48750 | 135.20261 | 37854 ft | 501 kts | 308° |
| 2026-05-06 13:13 | 67.53154 | 135.06140 | 37855 ft | 501 kts | 307° |
| 2026-05-06 13:14 | 67.57543 | 134.91976 | 37845 ft | 501 kts | 307° |
| 2026-05-06 13:14 | 67.61921 | 134.77759 | 37836 ft | 501 kts | 307° |
| 2026-05-06 13:15 | 67.66307 | 134.63522 | 37835 ft | 501 kts | 308° |
| 2026-05-06 13:15 | 67.70817 | 134.49550 | 37822 ft | 500 kts | 309° |
| 2026-05-06 13:16 | 67.75310 | 134.35685 | 37830 ft | 500 kts | 309° |
| 2026-05-06 13:16 | 67.79800 | 134.21626 | 37808 ft | 500 kts | 308° |
| 2026-05-06 13:17 | 67.84260 | 134.07510 | 37813 ft | 499 kts | 308° |
| 2026-05-06 13:17 | 67.88705 | 133.93352 | 37810 ft | 499 kts | 308° |
| 2026-05-06 13:18 | 67.93147 | 133.79122 | 37811 ft | 499 kts | 308° |
| 2026-05-06 13:18 | 67.97553 | 133.65021 | 37806 ft | 498 kts | 308° |
| 2026-05-06 13:19 | 68.02036 | 133.50943 | 37803 ft | 498 kts | 308° |
| 2026-05-06 13:19 | 68.06527 | 133.36741 | 37787 ft | 496 kts | 308° |
| 2026-05-06 13:20 | 68.10931 | 133.22675 | 37787 ft | 496 kts | 308° |
| 2026-05-06 13:20 | 68.15292 | 133.08355 | 37774 ft | 495 kts | 307° |
| 2026-05-06 13:21 | 68.19604 | 132.93916 | 37788 ft | 495 kts | 307° |
| 2026-05-06 13:21 | 68.23908 | 132.79424 | 37769 ft | 495 kts | 307° |
| 2026-05-06 13:22 | 68.28204 | 132.64906 | 37768 ft | 495 kts | 307° |
| 2026-05-06 13:22 | 68.32475 | 132.50391 | 37758 ft | 495 kts | 307° |
| 2026-05-06 13:23 | 68.36761 | 132.35730 | 37757 ft | 495 kts | 307° |
| 2026-05-06 13:23 | 68.41026 | 132.21043 | 37752 ft | 496 kts | 306° |
| 2026-05-06 13:24 | 68.45252 | 132.06383 | 37751 ft | 496 kts | 306° |
| 2026-05-06 13:24 | 68.49504 | 131.91533 | 37739 ft | 497 kts | 305° |
| 2026-05-06 13:25 | 68.53738 | 131.76643 | 37753 ft | 497 kts | 306° |
| 2026-05-06 13:25 | 68.57961 | 131.61695 | 37733 ft | 497 kts | 306° |
| 2026-05-06 13:26 | 68.62173 | 131.46680 | 37723 ft | 497 kts | 304° |
| 2026-05-06 13:26 | 68.66371 | 131.31608 | 37707 ft | 496 kts | 305° |
| 2026-05-06 13:27 | 68.70521 | 131.16605 | 37715 ft | 496 kts | 305° |
| 2026-05-06 13:27 | 68.74692 | 131.01430 | 37702 ft | 496 kts | 303° |
| 2026-05-06 13:28 | 68.78840 | 130.86218 | 37708 ft | 496 kts | 306° |
| 2026-05-06 13:28 | 68.82974 | 130.70955 | 37704 ft | 496 kts | 305° |
| 2026-05-06 13:29 | 68.87100 | 130.55621 | 37702 ft | 496 kts | 305° |
| 2026-05-06 13:29 | 68.91216 | 130.40212 | 37686 ft | 497 kts | 305° |
| 2026-05-06 13:30 | 68.95319 | 130.24738 | 37687 ft | 497 kts | 304° |
| 2026-05-06 13:30 | 68.99384 | 130.09299 | 37665 ft | 497 kts | 304° |
| 2026-05-06 13:31 | 69.03473 | 129.93656 | 37658 ft | 498 kts | 304° |
| 2026-05-06 13:31 | 69.07543 | 129.77981 | 37639 ft | 498 kts | 304° |
| 2026-05-06 13:32 | 69.11592 | 129.62265 | 37641 ft | 498 kts | 304° |
| 2026-05-06 13:32 | 69.15609 | 129.46562 | 37658 ft | 498 kts | 304° |
| 2026-05-06 13:33 | 69.19633 | 129.30717 | 37642 ft | 498 kts | 304° |
| 2026-05-06 13:33 | 69.23645 | 129.14808 | 37651 ft | 498 kts | 303° |
| 2026-05-06 13:34 | 69.27641 | 128.98855 | 37640 ft | 497 kts | 303° |
| 2026-05-06 13:34 | 69.31643 | 128.82933 | 37621 ft | 496 kts | 303° |
| 2026-05-06 13:35 | 69.35620 | 128.67071 | 37625 ft | 496 kts | 303° |
| 2026-05-06 13:35 | 69.39597 | 128.51083 | 37605 ft | 495 kts | 303° |
| 2026-05-06 13:36 | 69.43552 | 128.35041 | 37622 ft | 495 kts | 303° |
| 2026-05-06 13:36 | 69.47493 | 128.18928 | 37593 ft | 495 kts | 303° |
| 2026-05-06 13:37 | 69.51412 | 128.02785 | 37598 ft | 495 kts | 303° |
| 2026-05-06 13:37 | 69.55290 | 127.86694 | 37574 ft | 494 kts | 302° |
| 2026-05-06 13:38 | 69.59180 | 127.70435 | 37589 ft | 494 kts | 302° |
| 2026-05-06 13:38 | 69.63048 | 127.54144 | 37580 ft | 495 kts | 301° |
| 2026-05-06 13:39 | 69.66905 | 127.37765 | 37570 ft | 495 kts | 302° |
| 2026-05-06 13:39 | 69.70753 | 127.21313 | 37559 ft | 494 kts | 300° |
| 2026-05-06 13:40 | 69.74551 | 127.04950 | 37559 ft | 494 kts | 300° |
| 2026-05-06 13:40 | 69.78360 | 126.88414 | 37541 ft | 494 kts | 300° |
| 2026-05-06 13:41 | 69.82153 | 126.71813 | 37563 ft | 494 kts | 300° |
| 2026-05-06 13:41 | 69.85942 | 126.55118 | 37518 ft | 495 kts | 300° |
| 2026-05-06 13:42 | 69.89715 | 126.38343 | 37517 ft | 496 kts | 301° |
| 2026-05-06 13:42 | 69.93446 | 126.21441 | 37512 ft | 496 kts | 300° |
| 2026-05-06 13:43 | 69.97126 | 126.04592 | 37519 ft | 496 kts | 300° |
| 2026-05-06 13:43 | 70.00819 | 125.87573 | 37526 ft | 496 kts | 300° |
| 2026-05-06 13:44 | 70.04506 | 125.70472 | 37505 ft | 497 kts | 300° |
| 2026-05-06 13:44 | 70.08180 | 125.53295 | 37485 ft | 497 kts | 300° |
| 2026-05-06 13:45 | 70.11841 | 125.36038 | 37493 ft | 497 kts | 300° |
| 2026-05-06 13:45 | 70.17281 | 125.10135 | 37478 ft | 497 kts | 300° |
| 2026-05-06 13:46 | 70.20897 | 124.92742 | 37484 ft | 498 kts | 300° |
| 2026-05-06 13:46 | 70.24499 | 124.75272 | 37468 ft | 498 kts | 300° |
| 2026-05-06 13:47 | 70.28080 | 124.57759 | 37473 ft | 497 kts | 299° |
| 2026-05-06 13:47 | 70.31047 | 124.43139 | 37461 ft | 497 kts | 298° |
| 2026-05-06 13:48 | 70.35172 | 124.22650 | 37459 ft | 497 kts | 300° |
| 2026-05-06 13:48 | 70.38129 | 124.07837 | 37469 ft | 497 kts | 299° |
| 2026-05-06 13:49 | 70.41627 | 123.90177 | 37454 ft | 498 kts | 298° |
| 2026-05-06 13:49 | 70.45127 | 123.72361 | 37455 ft | 498 kts | 298° |
| 2026-05-06 13:50 | 70.48613 | 123.54482 | 37449 ft | 498 kts | 298° |
| 2026-05-06 13:50 | 70.52104 | 123.36570 | 37441 ft | 498 kts | 298° |
| 2026-05-06 13:51 | 70.55614 | 123.18655 | 37446 ft | 498 kts | 299° |
| 2026-05-06 13:51 | 70.59104 | 123.00685 | 37429 ft | 498 kts | 298° |
| 2026-05-06 13:52 | 70.62550 | 122.82742 | 37429 ft | 498 kts | 298° |
| 2026-05-06 13:52 | 70.66001 | 122.64613 | 37431 ft | 498 kts | 297° |
| 2026-05-06 13:53 | 70.69436 | 122.46430 | 37416 ft | 498 kts | 298° |
| 2026-05-06 13:53 | 70.72853 | 122.28171 | 37416 ft | 498 kts | 297° |
| 2026-05-06 13:54 | 70.76233 | 122.09870 | 37395 ft | 498 kts | 298° |
| 2026-05-06 13:54 | 70.79590 | 121.91515 | 37417 ft | 497 kts | 297° |
| 2026-05-06 13:55 | 70.82906 | 121.73234 | 37406 ft | 496 kts | 297° |